sensor_id;sensor_type;location;lat;lon;timestamp;P1;durP1;ratioP1;P2;durP2;ratioP2
44304;SDS011;30019;50.576;8.568;2023-05-14T01:52:42;80.57;;;71.35;;
44304;SDS011;30019;50.576;8.568;2023-05-14T03:46:43;61.83;;;55.95;;
44304;SDS011;30019;50.576;8.568;2023-05-14T03:49:08;63.13;;;57.13;;
44304;SDS011;30019;50.576;8.568;2023-05-14T03:51:34;52.20;;;47.15;;
44304;SDS011;30019;50.576;8.568;2023-05-14T03:54:00;54.25;;;48.45;;
44304;SDS011;30019;50.576;8.568;2023-05-14T03:56:25;99.47;;;50.10;;
44304;SDS011;30019;50.576;8.568;2023-05-14T03:58:51;53.28;;;47.75;;
44304;SDS011;30019;50.576;8.568;2023-05-14T04:01:16;92.15;;;48.35;;
44304;SDS011;30019;50.576;8.568;2023-05-14T04:03:42;95.53;;;51.42;;
44304;SDS011;30019;50.576;8.568;2023-05-14T04:06:08;113.40;;;47.05;;
44304;SDS011;30019;50.576;8.568;2023-05-14T04:08:33;67.70;;;48.63;;
44304;SDS011;30019;50.576;8.568;2023-05-14T04:10:59;65.78;;;56.50;;
44304;SDS011;30019;50.576;8.568;2023-05-14T04:13:25;91.43;;;54.83;;
44304;SDS011;30019;50.576;8.568;2023-05-14T04:15:50;59.88;;;53.42;;
44304;SDS011;30019;50.576;8.568;2023-05-14T04:18:16;69.80;;;52.83;;
44304;SDS011;30019;50.576;8.568;2023-05-14T04:20:41;57.28;;;52.67;;
44304;SDS011;30019;50.576;8.568;2023-05-14T04:23:07;77.37;;;50.92;;
44304;SDS011;30019;50.576;8.568;2023-05-14T04:25:32;80.53;;;50.42;;
44304;SDS011;30019;50.576;8.568;2023-05-14T04:27:58;64.75;;;50.97;;
44304;SDS011;30019;50.576;8.568;2023-05-14T04:30:23;76.00;;;49.13;;
44304;SDS011;30019;50.576;8.568;2023-05-14T04:32:49;61.85;;;47.28;;
44304;SDS011;30019;50.576;8.568;2023-05-14T04:35:15;92.37;;;49.15;;
44304;SDS011;30019;50.576;8.568;2023-05-14T04:37:41;86.85;;;44.33;;
44304;SDS011;30019;50.576;8.568;2023-05-14T04:40:07;69.10;;;49.47;;
44304;SDS011;30019;50.576;8.568;2023-05-14T04:42:35;121.93;;;45.67;;
44304;SDS011;30019;50.576;8.568;2023-05-14T04:45:01;85.75;;;43.55;;
44304;SDS011;30019;50.576;8.568;2023-05-14T04:47:28;71.50;;;50.03;;
44304;SDS011;30019;50.576;8.568;2023-05-14T04:49:54;62.80;;;47.65;;
44304;SDS011;30019;50.576;8.568;2023-05-14T04:52:19;111.28;;;47.60;;
44304;SDS011;30019;50.576;8.568;2023-05-14T04:54:45;74.00;;;49.87;;
44304;SDS011;30019;50.576;8.568;2023-05-14T04:57:10;56.17;;;50.50;;
44304;SDS011;30019;50.576;8.568;2023-05-14T04:59:36;59.75;;;45.20;;
44304;SDS011;30019;50.576;8.568;2023-05-14T05:02:02;72.30;;;48.55;;
44304;SDS011;30019;50.576;8.568;2023-05-14T05:04:27;66.25;;;58.97;;
44304;SDS011;30019;50.576;8.568;2023-05-14T05:06:53;58.05;;;53.13;;
44304;SDS011;30019;50.576;8.568;2023-05-14T05:09:18;49.10;;;45.03;;
44304;SDS011;30019;50.576;8.568;2023-05-14T05:11:44;67.93;;;51.28;;
44304;SDS011;30019;50.576;8.568;2023-05-14T05:14:10;59.75;;;48.95;;
44304;SDS011;30019;50.576;8.568;2023-05-14T05:16:35;52.50;;;47.72;;
44304;SDS011;30019;50.576;8.568;2023-05-14T05:19:00;58.22;;;51.53;;
44304;SDS011;30019;50.576;8.568;2023-05-14T05:21:26;50.20;;;45.40;;
44304;SDS011;30019;50.576;8.568;2023-05-14T05:23:52;57.10;;;52.90;;
44304;SDS011;30019;50.576;8.568;2023-05-14T05:26:17;56.05;;;51.13;;
44304;SDS011;30019;50.576;8.568;2023-05-14T05:28:43;66.50;;;54.97;;
44304;SDS011;30019;50.576;8.568;2023-05-14T05:31:08;53.35;;;48.20;;
44304;SDS011;30019;50.576;8.568;2023-05-14T05:33:34;60.75;;;48.25;;
44304;SDS011;30019;50.576;8.568;2023-05-14T05:35:59;75.93;;;50.42;;
44304;SDS011;30019;50.576;8.568;2023-05-14T05:38:25;80.28;;;56.42;;
44304;SDS011;30019;50.576;8.568;2023-05-14T05:40:51;67.07;;;60.53;;
44304;SDS011;30019;50.576;8.568;2023-05-14T05:43:16;60.45;;;54.95;;
44304;SDS011;30019;50.576;8.568;2023-05-14T05:45:42;51.33;;;47.38;;
44304;SDS011;30019;50.576;8.568;2023-05-14T05:48:10;44.92;;;41.33;;
44304;SDS011;30019;50.576;8.568;2023-05-14T05:50:35;51.65;;;44.85;;
44304;SDS011;30019;50.576;8.568;2023-05-14T05:53:01;62.10;;;54.28;;
44304;SDS011;30019;50.576;8.568;2023-05-14T05:55:28;60.72;;;54.67;;
44304;SDS011;30019;50.576;8.568;2023-05-14T05:57:53;94.05;;;50.88;;
44304;SDS011;30019;50.576;8.568;2023-05-14T06:00:19;99.00;;;50.35;;
44304;SDS011;30019;50.576;8.568;2023-05-14T06:02:44;65.55;;;59.88;;
44304;SDS011;30019;50.576;8.568;2023-05-14T06:05:11;59.30;;;54.47;;
44304;SDS011;30019;50.576;8.568;2023-05-14T06:07:37;71.68;;;66.10;;
44304;SDS011;30019;50.576;8.568;2023-05-14T06:10:02;56.55;;;52.45;;
44304;SDS011;30019;50.576;8.568;2023-05-14T06:12:28;60.58;;;56.15;;
44304;SDS011;30019;50.576;8.568;2023-05-14T06:14:54;49.10;;;45.40;;
44304;SDS011;30019;50.576;8.568;2023-05-14T06:17:21;68.20;;;63.50;;
44304;SDS011;30019;50.576;8.568;2023-05-14T06:19:47;61.70;;;57.13;;
44304;SDS011;30019;50.576;8.568;2023-05-14T06:22:13;53.47;;;49.35;;
44304;SDS011;30019;50.576;8.568;2023-05-14T06:24:39;53.50;;;49.78;;
44304;SDS011;30019;50.576;8.568;2023-05-14T07:10:48;44.70;;;41.72;;
44304;SDS011;30019;50.576;8.568;2023-05-14T07:47:10;38.65;;;36.13;;
44304;SDS011;30019;50.576;8.568;2023-05-14T07:49:36;38.17;;;35.63;;
44304;SDS011;30019;50.576;8.568;2023-05-14T07:52:01;35.80;;;33.45;;
44304;SDS011;30019;50.576;8.568;2023-05-14T07:54:27;38.25;;;35.88;;
44304;SDS011;30019;50.576;8.568;2023-05-14T07:56:53;34.80;;;32.70;;
44304;SDS011;30019;50.576;8.568;2023-05-14T08:33:23;31.95;;;29.98;;
44304;SDS011;30019;50.576;8.568;2023-05-14T08:43:11;31.45;;;29.60;;
44304;SDS011;30019;50.576;8.568;2023-05-14T08:45:39;34.90;;;32.80;;
44304;SDS011;30019;50.576;8.568;2023-05-14T08:52:59;30.87;;;29.07;;
44304;SDS011;30019;50.576;8.568;2023-05-14T08:55:25;35.88;;;33.70;;
44304;SDS011;30019;50.576;8.568;2023-05-14T08:57:52;30.20;;;28.17;;
44304;SDS011;30019;50.576;8.568;2023-05-14T09:00:18;31.95;;;30.05;;
44304;SDS011;30019;50.576;8.568;2023-05-14T09:02:44;28.83;;;27.13;;
44304;SDS011;30019;50.576;8.568;2023-05-14T09:05:11;31.62;;;29.67;;
44304;SDS011;30019;50.576;8.568;2023-05-14T09:07:38;31.60;;;29.77;;
44304;SDS011;30019;50.576;8.568;2023-05-14T09:27:06;35.70;;;33.60;;
44304;SDS011;30019;50.576;8.568;2023-05-14T09:34:32;30.90;;;29.10;;
44304;SDS011;30019;50.576;8.568;2023-05-14T09:37:00;35.28;;;33.13;;
44304;SDS011;30019;50.576;8.568;2023-05-14T09:39:27;29.00;;;27.30;;
44304;SDS011;30019;50.576;8.568;2023-05-14T10:06:12;29.10;;;26.00;;
44304;SDS011;30019;50.576;8.568;2023-05-14T10:18:51;27.67;;;26.08;;
44304;SDS011;30019;50.576;8.568;2023-05-14T10:21:20;29.95;;;28.15;;
44304;SDS011;30019;50.576;8.568;2023-05-14T10:23:47;32.90;;;30.67;;
44304;SDS011;30019;50.576;8.568;2023-05-14T10:36:10;29.60;;;27.80;;
44304;SDS011;30019;50.576;8.568;2023-05-14T10:38:36;28.60;;;26.90;;
44304;SDS011;30019;50.576;8.568;2023-05-14T10:41:06;30.83;;;28.92;;
44304;SDS011;30019;50.576;8.568;2023-05-14T10:48:28;30.35;;;28.45;;
44304;SDS011;30019;50.576;8.568;2023-05-14T10:53:28;31.90;;;29.92;;
44304;SDS011;30019;50.576;8.568;2023-05-14T10:56:12;32.00;;;30.00;;
44304;SDS011;30019;50.576;8.568;2023-05-14T11:01:04;33.37;;;31.30;;
44304;SDS011;30019;50.576;8.568;2023-05-14T11:06:02;32.95;;;30.90;;
44304;SDS011;30019;50.576;8.568;2023-05-14T11:08:28;39.17;;;36.50;;
44304;SDS011;30019;50.576;8.568;2023-05-14T11:10:56;44.60;;;41.90;;
44304;SDS011;30019;50.576;8.568;2023-05-14T11:13:22;32.30;;;30.40;;
44304;SDS011;30019;50.576;8.568;2023-05-14T11:15:47;31.02;;;29.17;;
44304;SDS011;30019;50.576;8.568;2023-05-14T11:20:50;29.27;;;27.53;;
44304;SDS011;30019;50.576;8.568;2023-05-14T11:25:42;29.40;;;27.70;;
44304;SDS011;30019;50.576;8.568;2023-05-14T11:30:33;29.40;;;27.70;;
44304;SDS011;30019;50.576;8.568;2023-05-14T11:35:24;31.47;;;29.57;;
44304;SDS011;30019;50.576;8.568;2023-05-14T11:37:50;32.20;;;30.30;;
44304;SDS011;30019;50.576;8.568;2023-05-14T11:40:16;30.75;;;28.95;;
44304;SDS011;30019;50.576;8.568;2023-05-14T11:45:09;30.45;;;28.70;;
44304;SDS011;30019;50.576;8.568;2023-05-14T11:54:53;29.98;;;27.87;;
44304;SDS011;30019;50.576;8.568;2023-05-14T11:59:45;28.40;;;26.50;;
44304;SDS011;30019;50.576;8.568;2023-05-14T12:02:20;28.20;;;26.48;;
44304;SDS011;30019;50.576;8.568;2023-05-14T12:17:13;35.85;;;33.67;;
44304;SDS011;30019;50.576;8.568;2023-05-14T12:19:49;32.10;;;30.15;;
44304;SDS011;30019;50.576;8.568;2023-05-14T12:24:42;30.40;;;28.60;;
44304;SDS011;30019;50.576;8.568;2023-05-14T12:34:34;31.60;;;29.80;;
44304;SDS011;30019;50.576;8.568;2023-05-14T12:37:00;34.23;;;32.17;;
44304;SDS011;30019;50.576;8.568;2023-05-14T12:41:51;33.40;;;31.37;;
44304;SDS011;30019;50.576;8.568;2023-05-14T12:49:07;30.12;;;28.30;;
44304;SDS011;30019;50.576;8.568;2023-05-14T12:58:53;29.35;;;27.45;;
44304;SDS011;30019;50.576;8.568;2023-05-14T13:01:19;32.70;;;30.80;;
44304;SDS011;30019;50.576;8.568;2023-05-14T13:03:45;31.60;;;29.70;;
44304;SDS011;30019;50.576;8.568;2023-05-14T13:06:11;35.37;;;33.27;;
44304;SDS011;30019;50.576;8.568;2023-05-14T13:32:54;42.15;;;39.67;;
44304;SDS011;30019;50.576;8.568;2023-05-14T13:35:19;38.63;;;36.33;;
44304;SDS011;30019;50.576;8.568;2023-05-14T13:37:45;32.17;;;30.33;;
44304;SDS011;30019;50.576;8.568;2023-05-14T13:40:11;33.00;;;31.12;;
44304;SDS011;30019;50.576;8.568;2023-05-14T13:42:37;31.00;;;29.20;;
44304;SDS011;30019;50.576;8.568;2023-05-14T13:45:04;36.95;;;34.78;;
44304;SDS011;30019;50.576;8.568;2023-05-14T13:47:30;41.63;;;39.15;;
44304;SDS011;30019;50.576;8.568;2023-05-14T13:49:56;35.75;;;33.55;;
44304;SDS011;30019;50.576;8.568;2023-05-14T13:52:22;36.40;;;34.10;;
44304;SDS011;30019;50.576;8.568;2023-05-14T13:54:47;37.92;;;35.72;;
44304;SDS011;30019;50.576;8.568;2023-05-14T14:02:05;33.63;;;31.63;;
44304;SDS011;30019;50.576;8.568;2023-05-14T14:04:31;33.67;;;31.67;;
44304;SDS011;30019;50.576;8.568;2023-05-14T14:06:56;34.45;;;32.45;;
44304;SDS011;30019;50.576;8.568;2023-05-14T14:09:22;35.25;;;32.78;;
44304;SDS011;30019;50.576;8.568;2023-05-14T14:11:48;38.35;;;36.08;;
44304;SDS011;30019;50.576;8.568;2023-05-14T14:14:15;34.65;;;32.63;;
44304;SDS011;30019;50.576;8.568;2023-05-14T14:16:41;38.58;;;36.33;;
44304;SDS011;30019;50.576;8.568;2023-05-14T14:19:07;31.02;;;29.20;;
44304;SDS011;30019;50.576;8.568;2023-05-14T14:21:33;30.48;;;28.62;;
44304;SDS011;30019;50.576;8.568;2023-05-14T14:23:59;38.47;;;36.08;;
44304;SDS011;30019;50.576;8.568;2023-05-14T14:26:25;30.10;;;28.20;;
44304;SDS011;30019;50.576;8.568;2023-05-14T14:28:54;29.92;;;28.20;;
44304;SDS011;30019;50.576;8.568;2023-05-14T14:31:19;30.40;;;28.60;;
44304;SDS011;30019;50.576;8.568;2023-05-14T14:48:33;29.55;;;27.83;;
44304;SDS011;30019;50.576;8.568;2023-05-14T14:53:29;30.40;;;28.60;;
44304;SDS011;30019;50.576;8.568;2023-05-14T14:58:21;33.95;;;31.95;;
44304;SDS011;30019;50.576;8.568;2023-05-14T15:03:16;29.40;;;27.40;;
44304;SDS011;30019;50.576;8.568;2023-05-14T15:05:42;27.60;;;25.83;;
44304;SDS011;30019;50.576;8.568;2023-05-14T15:10:33;36.20;;;34.10;;
44304;SDS011;30019;50.576;8.568;2023-05-14T15:13:01;31.40;;;29.60;;
44304;SDS011;30019;50.576;8.568;2023-05-14T15:15:28;32.70;;;30.83;;
44304;SDS011;30019;50.576;8.568;2023-05-14T15:17:53;31.17;;;29.23;;
44304;SDS011;30019;50.576;8.568;2023-05-14T15:20:19;32.60;;;30.70;;
44304;SDS011;30019;50.576;8.568;2023-05-14T15:22:45;32.17;;;30.17;;
44304;SDS011;30019;50.576;8.568;2023-05-14T15:25:11;32.90;;;30.90;;
44304;SDS011;30019;50.576;8.568;2023-05-14T15:27:36;35.83;;;33.72;;
44304;SDS011;30019;50.576;8.568;2023-05-14T15:42:10;36.53;;;34.28;;
44304;SDS011;30019;50.576;8.568;2023-05-14T15:44:36;35.22;;;33.17;;
44304;SDS011;30019;50.576;8.568;2023-05-14T16:16:11;42.38;;;39.78;;
44304;SDS011;30019;50.576;8.568;2023-05-14T16:25:53;42.72;;;39.85;;
44304;SDS011;30019;50.576;8.568;2023-05-14T16:28:19;44.53;;;41.85;;
44304;SDS011;30019;50.576;8.568;2023-05-14T16:30:45;44.70;;;42.03;;
44304;SDS011;30019;50.576;8.568;2023-05-14T16:33:10;42.92;;;40.42;;
44304;SDS011;30019;50.576;8.568;2023-05-14T16:35:36;34.40;;;32.40;;
44304;SDS011;30019;50.576;8.568;2023-05-14T16:38:01;42.03;;;39.53;;
44304;SDS011;30019;50.576;8.568;2023-05-14T16:40:27;39.33;;;36.97;;
44304;SDS011;30019;50.576;8.568;2023-05-14T16:42:53;37.00;;;34.83;;
44304;SDS011;30019;50.576;8.568;2023-05-14T16:45:18;37.42;;;35.13;;
44304;SDS011;30019;50.576;8.568;2023-05-14T16:47:44;38.85;;;36.47;;
44304;SDS011;30019;50.576;8.568;2023-05-14T16:50:09;36.85;;;34.70;;
44304;SDS011;30019;50.576;8.568;2023-05-14T16:52:35;42.13;;;39.63;;
44304;SDS011;30019;50.576;8.568;2023-05-14T16:55:01;37.85;;;35.47;;
44304;SDS011;30019;50.576;8.568;2023-05-14T16:57:26;36.70;;;34.50;;
44304;SDS011;30019;50.576;8.568;2023-05-14T16:59:52;35.67;;;33.57;;
44304;SDS011;30019;50.576;8.568;2023-05-14T17:02:17;37.00;;;34.80;;
44304;SDS011;30019;50.576;8.568;2023-05-14T17:04:43;36.72;;;34.38;;
44304;SDS011;30019;50.576;8.568;2023-05-14T17:43:34;52.58;;;49.42;;
44304;SDS011;30019;50.576;8.568;2023-05-14T17:46:00;42.05;;;39.05;;
44304;SDS011;30019;50.576;8.568;2023-05-14T17:48:25;32.40;;;30.50;;
44304;SDS011;30019;50.576;8.568;2023-05-14T17:50:51;41.90;;;39.40;;
44304;SDS011;30019;50.576;8.568;2023-05-14T17:53:16;40.35;;;37.85;;
44304;SDS011;30019;50.576;8.568;2023-05-14T17:55:42;35.30;;;33.30;;
44304;SDS011;30019;50.576;8.568;2023-05-14T17:58:09;33.72;;;31.67;;
44304;SDS011;30019;50.576;8.568;2023-05-14T18:00:35;39.22;;;36.92;;
44304;SDS011;30019;50.576;8.568;2023-05-14T18:03:01;41.78;;;39.28;;
44304;SDS011;30019;50.576;8.568;2023-05-14T18:05:26;37.78;;;35.53;;
44304;SDS011;30019;50.576;8.568;2023-05-14T18:07:53;43.30;;;40.80;;
44304;SDS011;30019;50.576;8.568;2023-05-14T18:10:21;36.13;;;34.03;;
44304;SDS011;30019;50.576;8.568;2023-05-14T18:12:47;35.05;;;32.95;;
44304;SDS011;30019;50.576;8.568;2023-05-14T18:15:13;34.13;;;32.15;;
44304;SDS011;30019;50.576;8.568;2023-05-14T18:17:38;34.40;;;32.28;;
44304;SDS011;30019;50.576;8.568;2023-05-14T18:20:04;39.17;;;36.88;;
44304;SDS011;30019;50.576;8.568;2023-05-14T18:22:31;39.08;;;36.78;;
44304;SDS011;30019;50.576;8.568;2023-05-14T18:24:56;34.45;;;32.42;;
44304;SDS011;30019;50.576;8.568;2023-05-14T18:27:22;36.50;;;34.30;;
44304;SDS011;30019;50.576;8.568;2023-05-14T18:29:47;36.42;;;33.00;;
44304;SDS011;30019;50.576;8.568;2023-05-14T18:32:13;42.65;;;40.12;;
44304;SDS011;30019;50.576;8.568;2023-05-14T18:34:39;46.58;;;43.78;;
44304;SDS011;30019;50.576;8.568;2023-05-14T18:37:04;34.00;;;32.03;;
44304;SDS011;30019;50.576;8.568;2023-05-14T18:39:31;40.75;;;38.40;;
44304;SDS011;30019;50.576;8.568;2023-05-14T18:41:56;35.03;;;32.83;;
44304;SDS011;30019;50.576;8.568;2023-05-14T18:44:22;36.50;;;34.33;;
44304;SDS011;30019;50.576;8.568;2023-05-14T18:46:48;36.38;;;34.22;;
44304;SDS011;30019;50.576;8.568;2023-05-14T18:49:13;40.42;;;38.03;;
44304;SDS011;30019;50.576;8.568;2023-05-14T18:51:39;33.30;;;31.25;;
44304;SDS011;30019;50.576;8.568;2023-05-14T18:54:04;32.53;;;30.48;;
44304;SDS011;30019;50.576;8.568;2023-05-14T18:56:30;37.22;;;34.97;;
44304;SDS011;30019;50.576;8.568;2023-05-14T18:58:55;45.85;;;43.15;;
44304;SDS011;30019;50.576;8.568;2023-05-14T19:01:21;38.38;;;36.05;;
44304;SDS011;30019;50.576;8.568;2023-05-14T19:03:50;48.83;;;45.92;;
44304;SDS011;30019;50.576;8.568;2023-05-14T19:06:16;46.08;;;43.22;;
44304;SDS011;30019;50.576;8.568;2023-05-14T19:08:42;47.55;;;44.65;;
44304;SDS011;30019;50.576;8.568;2023-05-14T19:11:07;35.08;;;33.05;;
44304;SDS011;30019;50.576;8.568;2023-05-14T19:13:33;38.53;;;36.28;;
44304;SDS011;30019;50.576;8.568;2023-05-14T19:15:58;37.53;;;35.33;;
44304;SDS011;30019;50.576;8.568;2023-05-14T19:18:24;46.90;;;43.58;;
44304;SDS011;30019;50.576;8.568;2023-05-14T19:20:50;50.67;;;47.62;;
44304;SDS011;30019;50.576;8.568;2023-05-14T19:23:15;39.40;;;37.03;;
44304;SDS011;30019;50.576;8.568;2023-05-14T19:25:41;37.40;;;35.17;;
44304;SDS011;30019;50.576;8.568;2023-05-14T19:28:06;36.20;;;33.90;;
44304;SDS011;30019;50.576;8.568;2023-05-14T19:30:32;48.60;;;45.22;;
44304;SDS011;30019;50.576;8.568;2023-05-14T19:32:58;45.67;;;42.83;;
44304;SDS011;30019;50.576;8.568;2023-05-14T19:35:23;41.15;;;38.58;;
44304;SDS011;30019;50.576;8.568;2023-05-14T19:37:49;37.25;;;35.03;;
44304;SDS011;30019;50.576;8.568;2023-05-14T19:40:15;33.13;;;30.90;;
44304;SDS011;30019;50.576;8.568;2023-05-14T19:42:40;37.47;;;35.10;;
44304;SDS011;30019;50.576;8.568;2023-05-14T19:45:06;38.58;;;36.15;;
44304;SDS011;30019;50.576;8.568;2023-05-14T19:47:32;37.25;;;34.97;;
44304;SDS011;30019;50.576;8.568;2023-05-14T19:49:57;35.00;;;32.83;;
44304;SDS011;30019;50.576;8.568;2023-05-14T19:52:23;36.20;;;34.00;;
44304;SDS011;30019;50.576;8.568;2023-05-14T19:54:49;41.78;;;39.15;;
44304;SDS011;30019;50.576;8.568;2023-05-14T19:57:14;44.90;;;41.63;;
44304;SDS011;30019;50.576;8.568;2023-05-14T19:59:40;46.37;;;43.55;;
44304;SDS011;30019;50.576;8.568;2023-05-14T20:02:06;36.53;;;34.33;;
44304;SDS011;30019;50.576;8.568;2023-05-14T20:04:31;38.80;;;36.50;;
44304;SDS011;30019;50.576;8.568;2023-05-14T20:06:57;41.08;;;38.60;;
44304;SDS011;30019;50.576;8.568;2023-05-14T20:09:23;40.80;;;38.30;;
44304;SDS011;30019;50.576;8.568;2023-05-14T20:11:48;39.90;;;37.28;;
44304;SDS011;30019;50.576;8.568;2023-05-14T20:14:14;42.10;;;39.60;;
44304;SDS011;30019;50.576;8.568;2023-05-14T20:16:39;39.67;;;37.30;;
44304;SDS011;30019;50.576;8.568;2023-05-14T20:19:05;39.33;;;36.92;;
44304;SDS011;30019;50.576;8.568;2023-05-14T20:21:31;46.00;;;43.25;;
44304;SDS011;30019;50.576;8.568;2023-05-14T20:23:57;49.10;;;46.13;;
44304;SDS011;30019;50.576;8.568;2023-05-14T20:26:22;47.38;;;44.42;;
44304;SDS011;30019;50.576;8.568;2023-05-14T20:28:48;39.92;;;37.58;;
44304;SDS011;30019;50.576;8.568;2023-05-14T20:31:13;45.30;;;42.45;;
44304;SDS011;30019;50.576;8.568;2023-05-14T20:33:39;43.87;;;41.20;;
44304;SDS011;30019;50.576;8.568;2023-05-14T20:36:04;41.50;;;38.97;;
44304;SDS011;30019;50.576;8.568;2023-05-14T20:38:30;49.60;;;46.60;;
44304;SDS011;30019;50.576;8.568;2023-05-14T20:40:58;52.80;;;49.63;;
44304;SDS011;30019;50.576;8.568;2023-05-14T20:43:25;45.65;;;42.67;;
44304;SDS011;30019;50.576;8.568;2023-05-14T20:45:51;42.33;;;39.72;;
44304;SDS011;30019;50.576;8.568;2023-05-14T20:48:17;40.58;;;37.83;;
44304;SDS011;30019;50.576;8.568;2023-05-14T20:50:45;42.20;;;39.63;;
44304;SDS011;30019;50.576;8.568;2023-05-14T20:53:10;40.72;;;38.22;;
44304;SDS011;30019;50.576;8.568;2023-05-14T20:55:36;46.37;;;43.58;;
44304;SDS011;30019;50.576;8.568;2023-05-14T20:58:03;45.55;;;42.70;;
44304;SDS011;30019;50.576;8.568;2023-05-14T21:00:28;44.05;;;41.20;;
44304;SDS011;30019;50.576;8.568;2023-05-14T21:02:54;43.38;;;40.58;;
44304;SDS011;30019;50.576;8.568;2023-05-14T21:05:20;41.55;;;39.03;;
44304;SDS011;30019;50.576;8.568;2023-05-14T21:07:46;40.03;;;37.45;;
44304;SDS011;30019;50.576;8.568;2023-05-14T21:10:11;44.75;;;42.05;;
44304;SDS011;30019;50.576;8.568;2023-05-14T21:12:37;36.60;;;34.33;;
44304;SDS011;30019;50.576;8.568;2023-05-14T21:15:03;38.00;;;35.75;;
44304;SDS011;30019;50.576;8.568;2023-05-14T21:17:28;40.53;;;38.00;;
44304;SDS011;30019;50.576;8.568;2023-05-14T21:19:54;43.45;;;40.72;;
44304;SDS011;30019;50.576;8.568;2023-05-14T21:22:20;46.08;;;43.17;;
44304;SDS011;30019;50.576;8.568;2023-05-14T21:24:47;40.80;;;38.25;;
44304;SDS011;30019;50.576;8.568;2023-05-14T21:27:13;46.13;;;42.85;;
44304;SDS011;30019;50.576;8.568;2023-05-14T21:29:39;46.95;;;44.00;;
44304;SDS011;30019;50.576;8.568;2023-05-14T21:32:05;47.28;;;44.40;;
44304;SDS011;30019;50.576;8.568;2023-05-14T21:34:31;50.00;;;47.03;;
44304;SDS011;30019;50.576;8.568;2023-05-14T21:36:56;45.28;;;41.90;;
44304;SDS011;30019;50.576;8.568;2023-05-14T21:39:22;44.60;;;41.85;;
44304;SDS011;30019;50.576;8.568;2023-05-14T21:41:47;43.20;;;40.00;;
44304;SDS011;30019;50.576;8.568;2023-05-14T21:44:13;53.38;;;50.08;;
44304;SDS011;30019;50.576;8.568;2023-05-14T21:46:38;44.22;;;41.47;;
44304;SDS011;30019;50.576;8.568;2023-05-14T21:49:04;47.78;;;44.55;;
44304;SDS011;30019;50.576;8.568;2023-05-14T21:51:29;44.05;;;41.37;;
44304;SDS011;30019;50.576;8.568;2023-05-14T21:53:56;43.00;;;40.38;;
44304;SDS011;30019;50.576;8.568;2023-05-14T21:56:21;57.05;;;53.17;;
44304;SDS011;30019;50.576;8.568;2023-05-14T21:58:47;59.85;;;56.20;;
44304;SDS011;30019;50.576;8.568;2023-05-14T22:01:13;52.38;;;49.20;;
44304;SDS011;30019;50.576;8.568;2023-05-14T22:03:38;41.37;;;38.90;;
44304;SDS011;30019;50.576;8.568;2023-05-14T22:06:04;38.25;;;35.85;;
44304;SDS011;30019;50.576;8.568;2023-05-14T22:08:30;45.60;;;42.20;;
44304;SDS011;30019;50.576;8.568;2023-05-14T22:10:56;51.28;;;48.22;;
44304;SDS011;30019;50.576;8.568;2023-05-14T22:13:21;50.03;;;46.90;;
44304;SDS011;30019;50.576;8.568;2023-05-14T22:15:47;51.17;;;47.95;;
44304;SDS011;30019;50.576;8.568;2023-05-14T22:18:12;39.35;;;36.92;;
44304;SDS011;30019;50.576;8.568;2023-05-14T22:42:29;39.35;;;36.97;;
44304;SDS011;30019;50.576;8.568;2023-05-14T22:44:55;41.67;;;39.17;;
44304;SDS011;30019;50.576;8.568;2023-05-14T22:47:20;43.78;;;40.65;;
44304;SDS011;30019;50.576;8.568;2023-05-14T22:49:46;49.38;;;46.37;;
44304;SDS011;30019;50.576;8.568;2023-05-14T22:52:11;47.70;;;44.78;;
44304;SDS011;30019;50.576;8.568;2023-05-14T22:54:37;48.13;;;45.05;;
44304;SDS011;30019;50.576;8.568;2023-05-14T22:57:02;39.67;;;37.08;;
